APG326 RPLL-RPVE
Flight info
| Callsign | APG326 |
|---|---|
| Flight time | 0h 36m |
| Altitude | 25000 |
| Route | VERDE4V VERDE W24 TAPER TAPER7A |
| Aircraft | A320/M-SDE3FGHIRWY/LB1 |
Departure
| Time | 2026-05-01 14:08 |
|---|---|
| Airport | Ninoy Aquino International Airport (RPLL) |
Arrival
| Time | 2026-05-01 14:44 |
|---|---|
| Airport | Godofredo P. Ramos Airport (RPVE) |
| Time | Latitude | Longitude | Altitude | Speed | Heading |
|---|---|---|---|---|---|
| 2026-05-01 13:52 | 14.52536 | 121.00179 | 69 ft | 0 kts | 270° |
| 2026-05-01 14:03 | 14.52535 | 121.00192 | 61 ft | 3 kts | 256° |
| 2026-05-01 14:03 | 14.52543 | 121.00208 | 59 ft | 3 kts | 220° |
| 2026-05-01 14:03 | 14.52558 | 121.00217 | 67 ft | 3 kts | 184° |
| 2026-05-01 14:04 | 14.52566 | 121.00218 | 61 ft | 0 kts | 167° |
| 2026-05-01 14:05 | 14.52541 | 121.00227 | 52 ft | 9 kts | 155° |
| 2026-05-01 14:05 | 14.52480 | 121.00281 | 66 ft | 13 kts | 137° |
| 2026-05-01 14:06 | 14.52409 | 121.00353 | 62 ft | 16 kts | 135° |
| 2026-05-01 14:06 | 14.52327 | 121.00439 | 64 ft | 18 kts | 134° |
| 2026-05-01 14:06 | 14.52292 | 121.00475 | 68 ft | 0 kts | 135° |
| 2026-05-01 14:07 | 14.52020 | 121.00759 | 67 ft | 91 kts | 135° |
| 2026-05-01 14:08 | 14.50963 | 121.01854 | 480 ft | 141 kts | 134° |
| 2026-05-01 14:08 | 14.50041 | 121.02798 | 1227 ft | 140 kts | 132° |
| 2026-05-01 14:08 | 14.49554 | 121.03262 | 1578 ft | 141 kts | 133° |
| 2026-05-01 14:08 | 14.48788 | 121.03973 | 1867 ft | 165 kts | 134° |
| 2026-05-01 14:09 | 14.47881 | 121.04819 | 2145 ft | 187 kts | 134° |
| 2026-05-01 14:09 | 14.46858 | 121.05778 | 2437 ft | 212 kts | 134° |
| 2026-05-01 14:09 | 14.45707 | 121.06859 | 2847 ft | 236 kts | 134° |
| 2026-05-01 14:09 | 14.44448 | 121.08057 | 3419 ft | 253 kts | 134° |
| 2026-05-01 14:10 | 14.43153 | 121.09318 | 4254 ft | 259 kts | 134° |
| 2026-05-01 14:10 | 14.41839 | 121.10622 | 5099 ft | 265 kts | 134° |
| 2026-05-01 14:10 | 14.40431 | 121.11871 | 5956 ft | 272 kts | 148° |
| 2026-05-01 14:10 | 14.38611 | 121.12469 | 6768 ft | 281 kts | 172° |
| 2026-05-01 14:11 | 14.36638 | 121.12560 | 7598 ft | 286 kts | 176° |
| 2026-05-01 14:11 | 14.32588 | 121.12594 | 9221 ft | 295 kts | 177° |
| 2026-05-01 14:11 | 14.30519 | 121.12603 | 10019 ft | 300 kts | 177° |
| 2026-05-01 14:12 | 14.28372 | 121.12609 | 10392 ft | 320 kts | 177° |
| 2026-05-01 14:12 | 14.26057 | 121.12618 | 10660 ft | 342 kts | 177° |
| 2026-05-01 14:12 | 14.23638 | 121.12629 | 11192 ft | 351 kts | 177° |
| 2026-05-01 14:12 | 14.21178 | 121.12640 | 11871 ft | 355 kts | 177° |
| 2026-05-01 14:13 | 14.18692 | 121.12650 | 12586 ft | 359 kts | 177° |
| 2026-05-01 14:13 | 14.16179 | 121.12639 | 13283 ft | 364 kts | 181° |
| 2026-05-01 14:13 | 14.13645 | 121.12340 | 13935 ft | 368 kts | 185° |
| 2026-05-01 14:13 | 14.11087 | 121.11983 | 14543 ft | 372 kts | 185° |
| 2026-05-01 14:14 | 14.08517 | 121.11606 | 15144 ft | 375 kts | 186° |
| 2026-05-01 14:14 | 14.05960 | 121.11226 | 15730 ft | 378 kts | 186° |
| 2026-05-01 14:14 | 14.03338 | 121.10838 | 16321 ft | 381 kts | 186° |
| 2026-05-01 14:14 | 14.00700 | 121.10449 | 16897 ft | 384 kts | 186° |
| 2026-05-01 14:15 | 13.98047 | 121.10063 | 17474 ft | 387 kts | 186° |
| 2026-05-01 14:15 | 13.95368 | 121.09680 | 18047 ft | 390 kts | 186° |
| 2026-05-01 14:15 | 13.92667 | 121.09291 | 18558 ft | 393 kts | 186° |
| 2026-05-01 14:15 | 13.89948 | 121.08894 | 19058 ft | 396 kts | 186° |
| 2026-05-01 14:16 | 13.87211 | 121.08498 | 19572 ft | 399 kts | 186° |
| 2026-05-01 14:16 | 13.84454 | 121.08101 | 19850 ft | 401 kts | 186° |
| 2026-05-01 14:16 | 13.81692 | 121.07705 | 19939 ft | 401 kts | 186° |
| 2026-05-01 14:16 | 13.78926 | 121.07307 | 20100 ft | 403 kts | 186° |
| 2026-05-01 14:17 | 13.76137 | 121.06903 | 20649 ft | 405 kts | 187° |
| 2026-05-01 14:17 | 13.73332 | 121.06495 | 21158 ft | 408 kts | 187° |
| 2026-05-01 14:17 | 13.70544 | 121.06090 | 21670 ft | 411 kts | 187° |
| 2026-05-01 14:17 | 13.67706 | 121.05677 | 22173 ft | 413 kts | 187° |
| 2026-05-01 14:18 | 13.64845 | 121.05262 | 22664 ft | 416 kts | 187° |
| 2026-05-01 14:18 | 13.61966 | 121.04848 | 23130 ft | 419 kts | 187° |
| 2026-05-01 14:18 | 13.59067 | 121.04433 | 23574 ft | 422 kts | 187° |
| 2026-05-01 14:18 | 13.57100 | 121.04151 | 23824 ft | 423 kts | 187° |
| 2026-05-01 14:19 | 13.53207 | 121.03914 | 24326 ft | 425 kts | 175° |
| 2026-05-01 14:19 | 13.50280 | 121.04390 | 24695 ft | 427 kts | 165° |
| 2026-05-01 14:19 | 13.47490 | 121.05430 | 24904 ft | 427 kts | 154° |
| 2026-05-01 14:19 | 13.44944 | 121.06981 | 24963 ft | 423 kts | 145° |
| 2026-05-01 14:20 | 13.42526 | 121.08691 | 24968 ft | 421 kts | 145° |
| 2026-05-01 14:20 | 13.37695 | 121.12093 | 24974 ft | 420 kts | 146° |
| 2026-05-01 14:20 | 13.35281 | 121.13784 | 24972 ft | 420 kts | 146° |
| 2026-05-01 14:21 | 13.32859 | 121.15479 | 24974 ft | 420 kts | 145° |
| 2026-05-01 14:21 | 13.30446 | 121.17169 | 24975 ft | 420 kts | 146° |
| 2026-05-01 14:21 | 13.28032 | 121.18862 | 24982 ft | 420 kts | 145° |
| 2026-05-01 14:22 | 13.23239 | 121.22227 | 24973 ft | 420 kts | 145° |
| 2026-05-01 14:22 | 13.20828 | 121.23916 | 24972 ft | 420 kts | 145° |
| 2026-05-01 14:22 | 13.18419 | 121.25603 | 24973 ft | 419 kts | 145° |
| 2026-05-01 14:22 | 13.16004 | 121.27295 | 24969 ft | 419 kts | 145° |
| 2026-05-01 14:23 | 13.13598 | 121.28983 | 24971 ft | 419 kts | 145° |
| 2026-05-01 14:23 | 13.11189 | 121.30673 | 24969 ft | 419 kts | 145° |
| 2026-05-01 14:23 | 13.08778 | 121.32366 | 24969 ft | 419 kts | 145° |
| 2026-05-01 14:23 | 13.06372 | 121.34055 | 24964 ft | 419 kts | 145° |
| 2026-05-01 14:24 | 13.03970 | 121.35742 | 24964 ft | 419 kts | 145° |
| 2026-05-01 14:24 | 13.01558 | 121.37431 | 24968 ft | 419 kts | 145° |
| 2026-05-01 14:24 | 12.99142 | 121.39120 | 24957 ft | 419 kts | 145° |
| 2026-05-01 14:24 | 12.96761 | 121.40784 | 24960 ft | 419 kts | 145° |
| 2026-05-01 14:25 | 12.94354 | 121.42465 | 24954 ft | 419 kts | 145° |
| 2026-05-01 14:25 | 12.91941 | 121.44151 | 24952 ft | 419 kts | 145° |
| 2026-05-01 14:25 | 12.89531 | 121.45836 | 24950 ft | 419 kts | 145° |
| 2026-05-01 14:25 | 12.87122 | 121.47520 | 24946 ft | 419 kts | 145° |
| 2026-05-01 14:26 | 12.84722 | 121.49199 | 24728 ft | 415 kts | 145° |
| 2026-05-01 14:26 | 12.80003 | 121.52493 | 23887 ft | 407 kts | 145° |
| 2026-05-01 14:26 | 12.77905 | 121.53959 | 23397 ft | 406 kts | 145° |
| 2026-05-01 14:27 | 12.75581 | 121.55581 | 22855 ft | 402 kts | 145° |
| 2026-05-01 14:27 | 12.73279 | 121.57185 | 22364 ft | 398 kts | 145° |
| 2026-05-01 14:27 | 12.70998 | 121.58772 | 21879 ft | 395 kts | 144° |
| 2026-05-01 14:28 | 12.66497 | 121.61911 | 20900 ft | 388 kts | 144° |
| 2026-05-01 14:28 | 12.64269 | 121.63469 | 20412 ft | 386 kts | 144° |
| 2026-05-01 14:28 | 12.62082 | 121.64994 | 19909 ft | 384 kts | 144° |
| 2026-05-01 14:28 | 12.59880 | 121.66524 | 19407 ft | 382 kts | 144° |
| 2026-05-01 14:29 | 12.57683 | 121.68053 | 18892 ft | 380 kts | 144° |
| 2026-05-01 14:29 | 12.55496 | 121.69575 | 18380 ft | 379 kts | 143° |
| 2026-05-01 14:30 | 12.49002 | 121.74105 | 16789 ft | 372 kts | 143° |
| 2026-05-01 14:30 | 12.46869 | 121.75589 | 16288 ft | 369 kts | 143° |
| 2026-05-01 14:30 | 12.44751 | 121.77061 | 15791 ft | 367 kts | 143° |
| 2026-05-01 14:31 | 12.41576 | 121.79271 | 15048 ft | 363 kts | 143° |
| 2026-05-01 14:31 | 12.40894 | 121.79741 | 14723 ft | 351 kts | 137° |
| 2026-05-01 14:32 | 12.39798 | 121.80766 | 13825 ft | 358 kts | 127° |
| 2026-05-01 14:32 | 12.38284 | 121.82793 | 13615 ft | 358 kts | 131° |
| 2026-05-01 14:33 | 12.36317 | 121.84194 | 13535 ft | 336 kts | 158° |
| 2026-05-01 14:33 | 12.34073 | 121.84480 | 13352 ft | 327 kts | 186° |
| 2026-05-01 14:33 | 12.31947 | 121.83642 | 12991 ft | 333 kts | 213° |
| 2026-05-01 14:33 | 12.30130 | 121.82167 | 12597 ft | 333 kts | 216° |
| 2026-05-01 14:34 | 12.28138 | 121.81007 | 12165 ft | 328 kts | 198° |
| 2026-05-01 14:34 | 12.25936 | 121.80484 | 11710 ft | 325 kts | 186° |
| 2026-05-01 14:34 | 12.23712 | 121.80066 | 11235 ft | 326 kts | 188° |
| 2026-05-01 14:34 | 12.21484 | 121.79582 | 10747 ft | 327 kts | 190° |
| 2026-05-01 14:35 | 12.19263 | 121.79073 | 10321 ft | 326 kts | 190° |
| 2026-05-01 14:35 | 12.17088 | 121.78571 | 10200 ft | 314 kts | 190° |
| 2026-05-01 14:35 | 12.15014 | 121.78099 | 10004 ft | 306 kts | 189° |
| 2026-05-01 14:35 | 12.12955 | 121.77642 | 9861 ft | 301 kts | 189° |
| 2026-05-01 14:36 | 12.10908 | 121.77194 | 9691 ft | 302 kts | 189° |
| 2026-05-01 14:36 | 12.08853 | 121.76750 | 9264 ft | 301 kts | 189° |
| 2026-05-01 14:36 | 12.06817 | 121.76311 | 8921 ft | 298 kts | 189° |
| 2026-05-01 14:36 | 12.04794 | 121.75874 | 8527 ft | 296 kts | 188° |
| 2026-05-01 14:37 | 12.02784 | 121.75438 | 8125 ft | 295 kts | 189° |
| 2026-05-01 14:37 | 12.00780 | 121.75002 | 7714 ft | 293 kts | 189° |
| 2026-05-01 14:37 | 11.98790 | 121.74569 | 7322 ft | 292 kts | 189° |
| 2026-05-01 14:37 | 11.96805 | 121.74139 | 6917 ft | 291 kts | 188° |
| 2026-05-01 14:38 | 11.94831 | 121.73711 | 6512 ft | 289 kts | 188° |
| 2026-05-01 14:38 | 11.92885 | 121.73295 | 6108 ft | 282 kts | 186° |
| 2026-05-01 14:38 | 11.90973 | 121.73266 | 5718 ft | 269 kts | 166° |
| 2026-05-01 14:38 | 11.89248 | 121.73866 | 5336 ft | 257 kts | 149° |
| 2026-05-01 14:39 | 11.87672 | 121.74689 | 4967 ft | 251 kts | 149° |
| 2026-05-01 14:39 | 11.86131 | 121.75488 | 4606 ft | 246 kts | 148° |
| 2026-05-01 14:39 | 11.84679 | 121.76342 | 4246 ft | 235 kts | 133° |
| 2026-05-01 14:39 | 11.83938 | 121.77706 | 3922 ft | 216 kts | 92° |
| 2026-05-01 14:40 | 11.84258 | 121.79136 | 3613 ft | 206 kts | 62° |
| 2026-05-01 14:40 | 11.84919 | 121.80417 | 3323 ft | 202 kts | 62° |
| 2026-05-01 14:40 | 11.85562 | 121.81681 | 3032 ft | 198 kts | 62° |
| 2026-05-01 14:40 | 11.86182 | 121.82905 | 2745 ft | 195 kts | 63° |
| 2026-05-01 14:41 | 11.86799 | 121.84125 | 2464 ft | 191 kts | 63° |
| 2026-05-01 14:41 | 11.87404 | 121.85324 | 2190 ft | 188 kts | 64° |
| 2026-05-01 14:41 | 11.87997 | 121.86501 | 1938 ft | 184 kts | 63° |
| 2026-05-01 14:41 | 11.88576 | 121.87651 | 1693 ft | 181 kts | 63° |
| 2026-05-01 14:42 | 11.89147 | 121.88787 | 1431 ft | 179 kts | 62° |
| 2026-05-01 14:42 | 11.89707 | 121.89900 | 1232 ft | 172 kts | 62° |
| 2026-05-01 14:42 | 11.90233 | 121.90952 | 980 ft | 161 kts | 61° |
| 2026-05-01 14:42 | 11.90715 | 121.91920 | 774 ft | 145 kts | 62° |
| 2026-05-01 14:43 | 11.91156 | 121.92805 | 583 ft | 137 kts | 63° |
| 2026-05-01 14:43 | 11.91581 | 121.93658 | 384 ft | 135 kts | 63° |
| 2026-05-01 14:43 | 11.92000 | 121.94509 | 205 ft | 132 kts | 63° |
| 2026-05-01 14:43 | 11.92418 | 121.95320 | 32 ft | 126 kts | 62° |
| 2026-05-01 14:44 | 11.92729 | 121.95937 | 27 ft | 57 kts | 63° |
| 2026-05-01 14:44 | 11.92759 | 121.96141 | 26 ft | 6 kts | 152° |
| 2026-05-01 14:44 | 11.92694 | 121.96178 | 26 ft | 14 kts | 153° |
| 2026-05-01 14:45 | 11.92650 | 121.96221 | 26 ft | 7 kts | 88° |
| 2026-05-01 14:45 | 11.92658 | 121.96293 | 26 ft | 4 kts | 144° |
| 2026-05-01 14:45 | 11.92639 | 121.96303 | 26 ft | 0 kts | 154° |